Thunder radar more information blitzortung!


avis per Pluja more information rain snow radar


Visita la nostra xarxa de llocs de meteo:

Template documentation
and downloads

And another site



Rain From: 17-10-2018 23:00 Until: 18-10-2018 16:59 warning for: Rain Level: Yellow info button

Pagina Historial Weather Underground text

Diari Resum Desembre 9, 2017 Unitats:  Tant    Imperial   Mètric
« Previous Dia
SegĂźent Dia »
Diari Setmana Mensual Anual Personalitzada
  Maxima: Minima: Media:
Temperatura: TemperatureC °F /  -17.8 °C 1.8 °F /  -16.8 °C 7.2 °F /  -13.8 °C
Punt de rosada: DewpointC °F /  -17.8 °C -2.7 °F /  -19.3 °C 0.2 °F /  -17.7 °C
Humitat: Humidity % 53 % 61 %
Wind Speed: WindSpeedKMH mph /  0 km/h - 3.7 mph /  6 km/h
RĂ fegues de vent: WindSpeedGustKMH mph /  0 km/h - -
Vent:- - SE
Pression baro: PressurehPa in /  0 hPa 1018.8 in /  34496.6 hPa -
Precipitacions: 0.0 in /  0 mm    
Historical Graphs
 
 
Dades de taula per Desembre 9, 2017
Temps Temperatura Punt de rosada Pression baro Vent Wind Speed RĂ fegues de vent Humitat Rainfall Rate (Hourly)
TemperatureC °F /  -17.8 °C DewpointC °F /  -17.8 °C PressurehPa in /  0 hPa Calm     Humidity % HourlyPrecipMM in /  0 mm
00:03 4.2 °F /  -15.4 °C -1.2 °F /  -18.4 °C 1019.9 in /  34533.8 hPa NW 2.6 mph /  4.2 km/h   68 % 0.0 in /  0 mm
00:20 2.4 °F /  -16.4 °C -2.3 °F /  -19.1 °C 1019.9 in /  34533.8 hPa West 1.6 mph /  2.6 km/h 3.2 mph /  5.1 km/h 71 % 0.0 in /  0 mm
00:30 2.5 °F /  -16.4 °C -2.1 °F /  -18.9 °C 1019.9 in /  34533.8 hPa Calm   3.2 mph /  5.1 km/h 72 % 0.0 in /  0 mm
00:40 2.5 °F /  -16.4 °C -2.1 °F /  -18.9 °C 1019.9 in /  34533.8 hPa Calm   1.6 mph /  2.6 km/h 72 % 0.0 in /  0 mm
00:50 2.5 °F /  -16.4 °C -2.1 °F /  -18.9 °C 1019.9 in /  34533.8 hPa West 1.6 mph /  2.6 km/h 3.2 mph /  5.1 km/h 72 % 0.0 in /  0 mm
01:00 2.5 °F /  -16.4 °C -2.1 °F /  -18.9 °C 1019.9 in /  34533.8 hPa NW 1.6 mph /  2.6 km/h 3.2 mph /  5.1 km/h 72 % 0.0 in /  0 mm
01:10 2.3 °F /  -16.5 °C -2.2 °F /  -19 °C 1019.9 in /  34533.8 hPa North 1.6 mph /  2.6 km/h 3.2 mph /  5.1 km/h 72 % 0.0 in /  0 mm
01:20 2.2 °F /  -16.6 °C -2.3 °F /  -19.1 °C 1019.9 in /  34533.8 hPa Calm   1.6 mph /  2.6 km/h 72 % 0.0 in /  0 mm
01:30 2.2 °F /  -16.6 °C -2.3 °F /  -19.1 °C 1019.9 in /  34533.8 hPa North 1.6 mph /  2.6 km/h 1.6 mph /  2.6 km/h 72 % 0.0 in /  0 mm
01:40 2.0 °F /  -16.7 °C -2.5 °F /  -19.2 °C 1019.9 in /  34533.8 hPa NW 1.6 mph /  2.6 km/h 3.2 mph /  5.1 km/h 72 % 0.0 in /  0 mm
01:50 2.1 °F /  -16.6 °C -2.4 °F /  -19.1 °C 1020.9 in /  34567.7 hPa NW 3.2 mph /  5.1 km/h 3.2 mph /  5.1 km/h 72 % 0.0 in /  0 mm
02:00 2.0 °F /  -16.7 °C -2.5 °F /  -19.2 °C 1020.9 in /  34567.7 hPa Calm   3.2 mph /  5.1 km/h 72 % 0.0 in /  0 mm
02:10 1.8 °F /  -16.8 °C -2.7 °F /  -19.3 °C 1020.9 in /  34567.7 hPa NW 1.6 mph /  2.6 km/h 1.6 mph /  2.6 km/h 72 % 0.0 in /  0 mm
02:20 2.0 °F /  -16.7 °C -2.5 °F /  -19.2 °C 1021.9 in /  34601.5 hPa NW 1.6 mph /  2.6 km/h 3.2 mph /  5.1 km/h 72 % 0.0 in /  0 mm
02:30 2.0 °F /  -16.7 °C -2.5 °F /  -19.2 °C 1021.9 in /  34601.5 hPa NNE 1.6 mph /  2.6 km/h 4.8 mph /  7.7 km/h 72 % 0.0 in /  0 mm
02:40 2.0 °F /  -16.7 °C -2.5 °F /  -19.2 °C 1021.9 in /  34601.5 hPa North 1.6 mph /  2.6 km/h 6.4 mph /  10.3 km/h 72 % 0.0 in /  0 mm
02:50 2.3 °F /  -16.5 °C -2.2 °F /  -19 °C 1021.9 in /  34601.5 hPa NNW 1.6 mph /  2.6 km/h 6.4 mph /  10.3 km/h 72 % 0.0 in /  0 mm
03:00 2.4 °F /  -16.4 °C -2.1 °F /  -18.9 °C 1021.9 in /  34601.5 hPa NNW 1.6 mph /  2.6 km/h 3.2 mph /  5.1 km/h 72 % 0.0 in /  0 mm
03:10 2.6 °F /  -16.3 °C -1.9 °F /  -18.8 °C 1021.9 in /  34601.5 hPa Calm   1.6 mph /  2.6 km/h 72 % 0.0 in /  0 mm
03:20 3.4 °F /  -15.9 °C -1.2 °F /  -18.4 °C 1021.9 in /  34601.5 hPa NNE 1.6 mph /  2.6 km/h 4.8 mph /  7.7 km/h 72 % 0.0 in /  0 mm
09:23 3.7 °F /  -15.7 °C -0.9 °F /  -18.3 °C 1021.9 in /  34601.5 hPa NNE 2.3 mph /  3.7 km/h 2.3 mph /  3.7 km/h 72 % 0.0 in /  0 mm
09:24 3.9 °F /  -15.6 °C -0.7 °F /  -18.2 °C 1021.9 in /  34601.5 hPa ENE 5.0 mph /  8 km/h 5.0 mph /  8 km/h 72 % 0.0 in /  0 mm
09:25 3.9 °F /  -15.6 °C -0.7 °F /  -18.2 °C 1021.9 in /  34601.5 hPa NNE 5.6 mph /  9 km/h 5.6 mph /  9 km/h 72 % 0.0 in /  0 mm
09:35 4.4 °F /  -15.3 °C -0.6 °F /  -18.1 °C 1021.9 in /  34601.5 hPa ENE 7.4 mph /  11.9 km/h 7.4 mph /  11.9 km/h 70 % 0.0 in /  0 mm
09:40 4.5 °F /  -15.3 °C -0.5 °F /  -18.1 °C 1021.9 in /  34601.5 hPa WSW 7.4 mph /  11.9 km/h 7.4 mph /  11.9 km/h 70 % 0.0 in /  0 mm
09:45 4.8 °F /  -15.1 °C -0.2 °F /  -17.9 °C 1020.9 in /  34567.7 hPa ENE 3.7 mph /  6 km/h 3.7 mph /  6 km/h 70 % 0.0 in /  0 mm
09:50 5.3 °F /  -14.8 °C 0.3 °F /  -17.6 °C 1020.9 in /  34567.7 hPa South 3.7 mph /  6 km/h 3.7 mph /  6 km/h 70 % 0.0 in /  0 mm
09:55 5.7 °F /  -14.6 °C 0.4 °F /  -17.6 °C 1020.9 in /  34567.7 hPa ENE 2.6 mph /  4.2 km/h 2.6 mph /  4.2 km/h 69 % 0.0 in /  0 mm
10:00 5.7 °F /  -14.6 °C 0.2 °F /  -17.7 °C 1021.9 in /  34601.5 hPa NNW 3.7 mph /  6 km/h 3.7 mph /  6 km/h 68 % 0.0 in /  0 mm
10:05 5.8 °F /  -14.6 °C 0.3 °F /  -17.6 °C 1021.9 in /  34601.5 hPa WNW 3.7 mph /  6 km/h 3.7 mph /  6 km/h 68 % 0.0 in /  0 mm
10:10 6.0 °F /  -14.4 °C 0.6 °F /  -17.4 °C 1021.9 in /  34601.5 hPa NW 3.7 mph /  6 km/h 3.7 mph /  6 km/h 68 % 0.0 in /  0 mm
10:15 6.0 °F /  -14.4 °C 0.3 °F /  -17.6 °C 1021.9 in /  34601.5 hPa ENE 3.2 mph /  5.1 km/h 3.2 mph /  5.1 km/h 67 % 0.0 in /  0 mm
10:20 6.1 °F /  -14.4 °C 0.4 °F /  -17.6 °C 1021.9 in /  34601.5 hPa NNW 7.4 mph /  11.9 km/h 7.4 mph /  11.9 km/h 67 % 0.0 in /  0 mm
10:25 6.3 °F /  -14.3 °C 0.6 °F /  -17.4 °C 1021.9 in /  34601.5 hPa ENE 5.6 mph /  9 km/h 5.6 mph /  9 km/h 67 % 0.0 in /  0 mm
10:30 6.5 °F /  -14.2 °C 0.6 °F /  -17.4 °C 1022.9 in /  34635.4 hPa NE 5.6 mph /  9 km/h 5.6 mph /  9 km/h 66 % 0.0 in /  0 mm
10:35 6.5 °F /  -14.2 °C 0.4 °F /  -17.6 °C 1022.9 in /  34635.4 hPa NNE 3.7 mph /  6 km/h 3.7 mph /  6 km/h 65 % 0.0 in /  0 mm
10:40 6.9 °F /  -13.9 °C 0.8 °F /  -17.3 °C 1022.9 in /  34635.4 hPa East 3.7 mph /  6 km/h 3.7 mph /  6 km/h 65 % 0.0 in /  0 mm
10:45 6.4 °F /  -14.2 °C 0.3 °F /  -17.6 °C 1022.9 in /  34635.4 hPa NNE 9.3 mph /  15 km/h 9.3 mph /  15 km/h 65 % 0.0 in /  0 mm
10:50 6.4 °F /  -14.2 °C 0.1 °F /  -17.7 °C 1022.9 in /  34635.4 hPa East 9.3 mph /  15 km/h 9.3 mph /  15 km/h 64 % 0.0 in /  0 mm
10:55 6.5 °F /  -14.2 °C 0.2 °F /  -17.7 °C 1022.9 in /  34635.4 hPa NNE 5.6 mph /  9 km/h 5.6 mph /  9 km/h 64 % 0.0 in /  0 mm
11:00 6.7 °F /  -14.1 °C 0.4 °F /  -17.6 °C 1022.9 in /  34635.4 hPa NNE 4.7 mph /  7.6 km/h 4.7 mph /  7.6 km/h 64 % 0.0 in /  0 mm
11:05 6.7 °F /  -14.1 °C 0.4 °F /  -17.6 °C 1022.9 in /  34635.4 hPa WSW 5.6 mph /  9 km/h 5.6 mph /  9 km/h 64 % 0.0 in /  0 mm
11:10 6.8 °F /  -14 °C 0.2 °F /  -17.7 °C 1022.9 in /  34635.4 hPa NNE 3.7 mph /  6 km/h 3.7 mph /  6 km/h 63 % 0.0 in /  0 mm
11:15 6.9 °F /  -13.9 °C 0.3 °F /  -17.6 °C 1022.9 in /  34635.4 hPa East 5.6 mph /  9 km/h 5.6 mph /  9 km/h 63 % 0.0 in /  0 mm
11:20 7.0 °F /  -13.9 °C 0.4 °F /  -17.6 °C 1022.9 in /  34635.4 hPa ENE 5.8 mph /  9.3 km/h 5.8 mph /  9.3 km/h 63 % 0.0 in /  0 mm
11:25 7.0 °F /  -13.9 °C 0.4 °F /  -17.6 °C 1022.9 in /  34635.4 hPa NNE 5.6 mph /  9 km/h 5.6 mph /  9 km/h 63 % 0.0 in /  0 mm
11:26 7.0 °F /  -13.9 °C 0.4 °F /  -17.6 °C 1022.9 in /  34635.4 hPa NNE 5.6 mph /  9 km/h 5.6 mph /  9 km/h 63 % 0.0 in /  0 mm
11:31 7.0 °F /  -13.9 °C 0.2 °F /  -17.7 °C 1022.9 in /  34635.4 hPa ENE 7.4 mph /  11.9 km/h 7.4 mph /  11.9 km/h 62 % 0.0 in /  0 mm
11:36 7.2 °F /  -13.8 °C 0.4 °F /  -17.6 °C 1022.9 in /  34635.4 hPa NNE 7.4 mph /  11.9 km/h 7.4 mph /  11.9 km/h 62 % 0.0 in /  0 mm
11:41 7.5 °F /  -13.6 °C 0.7 °F /  -17.4 °C 1022.9 in /  34635.4 hPa North 5.6 mph /  9 km/h 5.6 mph /  9 km/h 62 % 0.0 in /  0 mm
11:46 7.6 °F /  -13.6 °C 0.8 °F /  -17.3 °C 1022.9 in /  34635.4 hPa NE 5.3 mph /  8.5 km/h 5.3 mph /  8.5 km/h 62 % 0.0 in /  0 mm
11:51 7.9 °F /  -13.4 °C 1.1 °F /  -17.2 °C 1022.9 in /  34635.4 hPa ESE 3.7 mph /  6 km/h 3.7 mph /  6 km/h 62 % 0.0 in /  0 mm
11:56 8.0 °F /  -13.3 °C 0.9 °F /  -17.3 °C 1022.9 in /  34635.4 hPa NNE 7.4 mph /  11.9 km/h 7.4 mph /  11.9 km/h 61 % 0.0 in /  0 mm
12:01 7.8 °F /  -13.4 °C 0.7 °F /  -17.4 °C 1021.9 in /  34601.5 hPa ENE 9.3 mph /  15 km/h 9.3 mph /  15 km/h 61 % 0.0 in /  0 mm
12:06 8.1 °F /  -13.3 °C 1.0 °F /  -17.2 °C 1021.9 in /  34601.5 hPa NE 6.9 mph /  11.1 km/h 6.9 mph /  11.1 km/h 61 % 0.0 in /  0 mm
12:11 8.1 °F /  -13.3 °C 1.0 °F /  -17.2 °C 1021.9 in /  34601.5 hPa NNE 9.3 mph /  15 km/h 9.3 mph /  15 km/h 61 % 0.0 in /  0 mm
12:16 8.3 °F /  -13.2 °C 1.0 °F /  -17.2 °C 1021.9 in /  34601.5 hPa WNW 5.6 mph /  9 km/h 5.6 mph /  9 km/h 60 % 0.0 in /  0 mm
12:21 8.5 °F /  -13.1 °C 1.2 °F /  -17.1 °C 1021.9 in /  34601.5 hPa ENE 5.8 mph /  9.3 km/h 5.8 mph /  9.3 km/h 60 % 0.0 in /  0 mm
12:26 8.6 °F /  -13 °C 1.3 °F /  -17.1 °C 1021.9 in /  34601.5 hPa ENE 5.3 mph /  8.5 km/h 5.3 mph /  8.5 km/h 60 % 0.0 in /  0 mm
12:31 8.6 °F /  -13 °C 1.1 °F /  -17.2 °C 1021.9 in /  34601.5 hPa NNE 5.6 mph /  9 km/h 5.6 mph /  9 km/h 59 % 0.0 in /  0 mm
12:36 8.8 °F /  -12.9 °C 1.2 °F /  -17.1 °C 1021.9 in /  34601.5 hPa NE 7.4 mph /  11.9 km/h 7.4 mph /  11.9 km/h 59 % 0.0 in /  0 mm
12:41 8.9 °F /  -12.8 °C 1.3 °F /  -17.1 °C 1021.9 in /  34601.5 hPa NNE 6.4 mph /  10.3 km/h 6.4 mph /  10.3 km/h 59 % 0.0 in /  0 mm
12:46 9.0 °F /  -12.8 °C 1.2 °F /  -17.1 °C 1021.9 in /  34601.5 hPa North 6.9 mph /  11.1 km/h 6.9 mph /  11.1 km/h 58 % 0.0 in /  0 mm
12:51 9.1 °F /  -12.7 °C 1.3 °F /  -17.1 °C 1021.9 in /  34601.5 hPa NNE 5.6 mph /  9 km/h 5.6 mph /  9 km/h 58 % 0.0 in /  0 mm
12:56 9.3 °F /  -12.6 °C 1.4 °F /  -17 °C 1021.9 in /  34601.5 hPa NNE 3.7 mph /  6 km/h 3.7 mph /  6 km/h 58 % 0.0 in /  0 mm
13:01 9.6 °F /  -12.4 °C 1.7 °F /  -16.8 °C 1021.9 in /  34601.5 hPa NNE 3.9 mph /  6.3 km/h 3.9 mph /  6.3 km/h 58 % 0.0 in /  0 mm
13:06 9.4 °F /  -12.6 °C 1.3 °F /  -17.1 °C 1021.9 in /  34601.5 hPa ENE 7.4 mph /  11.9 km/h 7.4 mph /  11.9 km/h 57 % 0.0 in /  0 mm
13:11 9.3 °F /  -12.6 °C 0.9 °F /  -17.3 °C 1021.9 in /  34601.5 hPa ENE 7.4 mph /  11.9 km/h 7.4 mph /  11.9 km/h 56 % 0.0 in /  0 mm
13:16 9.5 °F /  -12.5 °C 1.4 °F /  -17 °C 1021.9 in /  34601.5 hPa ENE 3.7 mph /  6 km/h 3.7 mph /  6 km/h 57 % 0.0 in /  0 mm
13:21 9.8 °F /  -12.3 °C 1.7 °F /  -16.8 °C 1021.9 in /  34601.5 hPa ENE 5.6 mph /  9 km/h 5.6 mph /  9 km/h 57 % 0.0 in /  0 mm
13:26 9.9 °F /  -12.3 °C 1.5 °F /  -16.9 °C 1021.9 in /  34601.5 hPa ENE 3.7 mph /  6 km/h 3.7 mph /  6 km/h 56 % 0.0 in /  0 mm
13:31 10.1 °F /  -12.2 °C 1.7 °F /  -16.8 °C 1021.9 in /  34601.5 hPa ENE 1.9 mph /  3.1 km/h   56 % 0.0 in /  0 mm
13:36 10.0 °F /  -12.2 °C 1.4 °F /  -17 °C 1021.9 in /  34601.5 hPa ESE 7.4 mph /  11.9 km/h 7.4 mph /  11.9 km/h 55 % 0.0 in /  0 mm
13:51 9.8 °F /  -12.3 °C 1.2 °F /  -17.1 °C 1021.9 in /  34601.5 hPa ESE 5.3 mph /  8.5 km/h 5.3 mph /  8.5 km/h 55 % 0.0 in /  0 mm
14:00 7.1 °F /  -13.8 °C -0.6 °F /  -18.1 °C 1018.8 in /  34496.6 hPa Calm     58 % 0.0 in /  0 mm
14:01 10.0 °F /  -12.2 °C 1.4 °F /  -17 °C 1021.9 in /  34601.5 hPa NE 3.9 mph /  6.3 km/h 4.2 mph /  6.8 km/h 55 % 0.0 in /  0 mm
14:06 9.9 °F /  -12.3 °C 1.3 °F /  -17.1 °C 1021.9 in /  34601.5 hPa SE 7.4 mph /  11.9 km/h 7.4 mph /  11.9 km/h 55 % 0.0 in /  0 mm
14:10 7.0 °F /  -13.9 °C -0.7 °F /  -18.2 °C 1019.9 in /  34533.8 hPa Calm     58 % 0.0 in /  0 mm
14:14 10.0 °F /  -12.2 °C 1.1 °F /  -17.2 °C 1020.9 in /  34567.7 hPa ESE 7.4 mph /  11.9 km/h 7.4 mph /  11.9 km/h 54 % 0.0 in /  0 mm
14:20 6.7 °F /  -14.1 °C -1.0 °F /  -18.3 °C 1018.8 in /  34496.6 hPa West 1.6 mph /  2.6 km/h 1.6 mph /  2.6 km/h 58 % 0.0 in /  0 mm
14:24 10.2 °F /  -12.1 °C 1.3 °F /  -17.1 °C 1020.9 in /  34567.7 hPa ESE 6.9 mph /  11.1 km/h 6.9 mph /  11.1 km/h 54 % 0.0 in /  0 mm
14:29 10.2 °F /  -12.1 °C 1.3 °F /  -17.1 °C 1020.9 in /  34567.7 hPa East 7.4 mph /  11.9 km/h 7.4 mph /  11.9 km/h 54 % 0.0 in /  0 mm
14:30 6.5 °F /  -14.2 °C -0.9 °F /  -18.3 °C 1018.8 in /  34496.6 hPa NNE 1.6 mph /  2.6 km/h 3.2 mph /  5.1 km/h 59 % 0.0 in /  0 mm
14:34 10.5 °F /  -11.9 °C 1.6 °F /  -16.9 °C 1020.9 in /  34567.7 hPa South 5.6 mph /  9 km/h 5.6 mph /  9 km/h 54 % 0.0 in /  0 mm
14:39 10.6 °F /  -11.9 °C 1.7 °F /  -16.8 °C 1020.9 in /  34567.7 hPa SSE 7.4 mph /  11.9 km/h 7.4 mph /  11.9 km/h 54 % 0.0 in /  0 mm
14:40 6.4 °F /  -14.2 °C -1.1 °F /  -18.4 °C 1019.9 in /  34533.8 hPa Calm   3.2 mph /  5.1 km/h 59 % 0.0 in /  0 mm
14:44 10.8 °F /  -11.8 °C 1.6 °F /  -16.9 °C 1020.9 in /  34567.7 hPa SSE 5.6 mph /  9 km/h 5.6 mph /  9 km/h 53 % 0.0 in /  0 mm
14:49 11.0 °F /  -11.7 °C 1.8 °F /  -16.8 °C 1020.9 in /  34567.7 hPa SSE 7.4 mph /  11.9 km/h 7.4 mph /  11.9 km/h 53 % 0.0 in /  0 mm
14:50 6.1 °F /  -14.4 °C -1.3 °F /  -18.5 °C 1019.9 in /  34533.8 hPa NNW 1.6 mph /  2.6 km/h 3.2 mph /  5.1 km/h 59 % 0.0 in /  0 mm
14:54 11.1 °F /  -11.6 °C 1.9 °F /  -16.7 °C 1020.9 in /  34567.7 hPa ESE 5.6 mph /  9 km/h 5.6 mph /  9 km/h 53 % 0.0 in /  0 mm
14:59 11.1 °F /  -11.6 °C 1.9 °F /  -16.7 °C 1019.9 in /  34533.8 hPa SE 7.4 mph /  11.9 km/h 7.4 mph /  11.9 km/h 53 % 0.0 in /  0 mm
15:00 5.8 °F /  -14.6 °C -1.4 °F /  -18.6 °C 1019.9 in /  34533.8 hPa Calm   3.2 mph /  5.1 km/h 60 % 0.0 in /  0 mm
15:04 11.2 °F /  -11.6 °C 1.9 °F /  -16.7 °C 1019.9 in /  34533.8 hPa ESE 10.0 mph /  16.1 km/h 10.0 mph /  16.1 km/h 53 % 0.0 in /  0 mm
15:09 10.9 °F /  -11.7 °C 1.7 °F /  -16.8 °C 1019.9 in /  34533.8 hPa ENE 7.9 mph /  12.7 km/h 7.9 mph /  12.7 km/h 53 % 0.0 in /  0 mm
15:10 5.6 °F /  -14.7 °C -1.3 °F /  -18.5 °C 1019.9 in /  34533.8 hPa Calm     61 % 0.0 in /  0 mm
15:14 10.9 °F /  -11.7 °C 1.7 °F /  -16.8 °C 1020.9 in /  34567.7 hPa SE 9.3 mph /  15 km/h 9.3 mph /  15 km/h 53 % 0.0 in /  0 mm
15:19 10.6 °F /  -11.9 °C 1.4 °F /  -17 °C 1020.9 in /  34567.7 hPa East 13.0 mph /  20.9 km/h 13.0 mph /  20.9 km/h 53 % 0.0 in /  0 mm
15:20 5.6 °F /  -14.7 °C -1.3 °F /  -18.5 °C 1019.9 in /  34533.8 hPa West 1.6 mph /  2.6 km/h 1.6 mph /  2.6 km/h 61 % 0.0 in /  0 mm
15:24 10.4 °F /  -12 °C 1.2 °F /  -17.1 °C 1020.9 in /  34567.7 hPa ESE 13.0 mph /  20.9 km/h 13.0 mph /  20.9 km/h 53 % 0.0 in /  0 mm
15:29 10.3 °F /  -12.1 °C 1.4 °F /  -17 °C 1020.9 in /  34567.7 hPa ESE 9.3 mph /  15 km/h 9.3 mph /  15 km/h 54 % 0.0 in /  0 mm
15:30 5.6 °F /  -14.7 °C -1.1 °F /  -18.4 °C 1019.9 in /  34533.8 hPa Calm   1.6 mph /  2.6 km/h 62 % 0.0 in /  0 mm
15:34 10.2 °F /  -12.1 °C 1.3 °F /  -17.1 °C 1020.9 in /  34567.7 hPa ESE 9.3 mph /  15 km/h 9.3 mph /  15 km/h 54 % 0.0 in /  0 mm
15:39 10.2 °F /  -12.1 °C 1.3 °F /  -17.1 °C 1020.9 in /  34567.7 hPa East 7.4 mph /  11.9 km/h 7.4 mph /  11.9 km/h 54 % 0.0 in /  0 mm
15:40 5.7 °F /  -14.6 °C -1.0 °F /  -18.3 °C 1019.9 in /  34533.8 hPa WSW 1.6 mph /  2.6 km/h 3.2 mph /  5.1 km/h 62 % 0.0 in /  0 mm
15:44 10.3 °F /  -12.1 °C 1.4 °F /  -17 °C 1020.9 in /  34567.7 hPa East 4.2 mph /  6.8 km/h 4.7 mph /  7.6 km/h 54 % 0.0 in /  0 mm
15:49 10.3 °F /  -12.1 °C 1.4 °F /  -17 °C 1020.9 in /  34567.7 hPa NNE 5.6 mph /  9 km/h 5.6 mph /  9 km/h 54 % 0.0 in /  0 mm
15:50 5.8 °F /  -14.6 °C -0.9 °F /  -18.3 °C 1019.9 in /  34533.8 hPa SW 1.6 mph /  2.6 km/h 3.2 mph /  5.1 km/h 62 % 0.0 in /  0 mm
15:54 10.4 °F /  -12 °C 1.7 °F /  -16.8 °C 1020.9 in /  34567.7 hPa ENE 5.6 mph /  9 km/h 5.6 mph /  9 km/h 55 % 0.0 in /  0 mm
15:59 10.2 °F /  -12.1 °C 1.6 °F /  -16.9 °C 1020.9 in /  34567.7 hPa ESE 5.6 mph /  9 km/h 5.6 mph /  9 km/h 55 % 0.0 in /  0 mm
16:00 5.9 °F /  -14.5 °C -0.8 °F /  -18.2 °C 1019.9 in /  34533.8 hPa Calm   3.2 mph /  5.1 km/h 62 % 0.0 in /  0 mm
16:04 10.3 °F /  -12.1 °C 1.9 °F /  -16.7 °C 1020.9 in /  34567.7 hPa ENE 3.7 mph /  6 km/h 3.7 mph /  6 km/h 56 % 0.0 in /  0 mm
16:09 10.3 °F /  -12.1 °C 1.9 °F /  -16.7 °C 1020.9 in /  34567.7 hPa ENE 5.6 mph /  9 km/h 5.6 mph /  9 km/h 56 % 0.0 in /  0 mm
16:10 5.9 °F /  -14.5 °C -0.6 °F /  -18.1 °C 1019.9 in /  34533.8 hPa Calm     63 % 0.0 in /  0 mm
16:14 10.4 °F /  -12 °C 2.0 °F /  -16.7 °C 1020.9 in /  34567.7 hPa ENE 3.7 mph /  6 km/h 3.7 mph /  6 km/h 56 % 0.0 in /  0 mm
16:19 10.4 °F /  -12 °C 1.7 °F /  -16.8 °C 1020.9 in /  34567.7 hPa ESE 5.6 mph /  9 km/h 5.6 mph /  9 km/h 55 % 0.0 in /  0 mm
16:20 5.9 °F /  -14.5 °C -0.6 °F /  -18.1 °C 1019.9 in /  34533.8 hPa Calm   1.6 mph /  2.6 km/h 63 % 0.0 in /  0 mm
16:29 10.5 °F /  -11.9 °C 1.8 °F /  -16.8 °C 1019.9 in /  34533.8 hPa NE 3.7 mph /  6 km/h 3.7 mph /  6 km/h 55 % 0.0 in /  0 mm
16:34 10.5 °F /  -11.9 °C 1.8 °F /  -16.8 °C 1019.9 in /  34533.8 hPa NE 3.7 mph /  6 km/h 3.7 mph /  6 km/h 55 % 0.0 in /  0 mm
16:39 10.5 °F /  -11.9 °C 1.8 °F /  -16.8 °C 1019.9 in /  34533.8 hPa East 3.2 mph /  5.1 km/h 3.2 mph /  5.1 km/h 55 % 0.0 in /  0 mm
16:44 10.4 °F /  -12 °C 2.0 °F /  -16.7 °C 1020.9 in /  34567.7 hPa NNE 3.7 mph /  6 km/h 3.7 mph /  6 km/h 56 % 0.0 in /  0 mm
16:49 10.4 °F /  -12 °C 2.0 °F /  -16.7 °C 1020.9 in /  34567.7 hPa NE 5.0 mph /  8 km/h 5.0 mph /  8 km/h 56 % 0.0 in /  0 mm
16:54 10.3 °F /  -12.1 °C 1.9 °F /  -16.7 °C 1020.9 in /  34567.7 hPa NE 4.2 mph /  6.8 km/h 4.2 mph /  6.8 km/h 56 % 0.0 in /  0 mm
16:59 10.2 °F /  -12.1 °C 1.8 °F /  -16.8 °C 1020.9 in /  34567.7 hPa ENE 3.7 mph /  6 km/h 3.7 mph /  6 km/h 56 % 0.0 in /  0 mm
17:04 10.1 °F /  -12.2 °C 1.7 °F /  -16.8 °C 1020.9 in /  34567.7 hPa ENE 1.9 mph /  3.1 km/h   56 % 0.0 in /  0 mm
17:09 10.0 °F /  -12.2 °C 1.9 °F /  -16.7 °C 1020.9 in /  34567.7 hPa WSW 1.9 mph /  3.1 km/h   57 % 0.0 in /  0 mm
17:14 10.0 °F /  -12.2 °C 1.9 °F /  -16.7 °C 1019.9 in /  34533.8 hPa WSW 3.7 mph /  6 km/h 3.7 mph /  6 km/h 57 % 0.0 in /  0 mm
17:19 9.9 °F /  -12.3 °C 1.8 °F /  -16.8 °C 1019.9 in /  34533.8 hPa West 3.7 mph /  6 km/h 3.7 mph /  6 km/h 57 % 0.0 in /  0 mm
17:24 9.7 °F /  -12.4 °C 1.6 °F /  -16.9 °C 1019.9 in /  34533.8 hPa West 1.9 mph /  3.1 km/h 1.9 mph /  3.1 km/h 57 % 0.0 in /  0 mm
17:29 9.5 °F /  -12.5 °C 1.4 °F /  -17 °C 1020.9 in /  34567.7 hPa SW 1.9 mph /  3.1 km/h 1.9 mph /  3.1 km/h 57 % 0.0 in /  0 mm
17:34 9.3 °F /  -12.6 °C 1.2 °F /  -17.1 °C 1020.9 in /  34567.7 hPa SW 2.3 mph /  3.7 km/h   57 % 0.0 in /  0 mm
17:39 9.2 °F /  -12.7 °C 1.1 °F /  -17.2 °C 1020.9 in /  34567.7 hPa Calm     57 % 0.0 in /  0 mm
17:44 9.0 °F /  -12.8 °C 0.9 °F /  -17.3 °C 1019.9 in /  34533.8 hPa WSW 1.9 mph /  3.1 km/h 1.9 mph /  3.1 km/h 57 % 0.0 in /  0 mm
17:49 9.0 °F /  -12.8 °C 0.9 °F /  -17.3 °C 1019.9 in /  34533.8 hPa WSW 1.9 mph /  3.1 km/h   57 % 0.0 in /  0 mm
17:54 8.8 °F /  -12.9 °C 0.7 °F /  -17.4 °C 1019.9 in /  34533.8 hPa WNW 3.7 mph /  6 km/h 3.7 mph /  6 km/h 57 % 0.0 in /  0 mm
17:59 8.7 °F /  -12.9 °C 0.4 °F /  -17.6 °C 1019.9 in /  34533.8 hPa WSW 1.9 mph /  3.1 km/h 1.9 mph /  3.1 km/h 56 % 0.0 in /  0 mm
18:04 8.5 °F /  -13.1 °C 0.2 °F /  -17.7 °C 1019.9 in /  34533.8 hPa SW 2.6 mph /  4.2 km/h 2.6 mph /  4.2 km/h 56 % 0.0 in /  0 mm
18:09 8.4 °F /  -13.1 °C 0.1 °F /  -17.7 °C 1019.9 in /  34533.8 hPa SW 1.9 mph /  3.1 km/h 1.9 mph /  3.1 km/h 56 % 0.0 in /  0 mm
18:14 8.2 °F /  -13.2 °C 0.2 °F /  -17.7 °C 1019.9 in /  34533.8 hPa Calm     57 % 0.0 in /  0 mm
18:20 8.1 °F /  -13.3 °C 0.1 °F /  -17.7 °C 1019.9 in /  34533.8 hPa SW 1.9 mph /  3.1 km/h 2.3 mph /  3.7 km/h 57 % 0.0 in /  0 mm
18:25 8.0 °F /  -13.3 °C 0.0 °F /  -17.8 °C 1019.9 in /  34533.8 hPa WSW 2.6 mph /  4.2 km/h   57 % 0.0 in /  0 mm
18:30 8.0 °F /  -13.3 °C 0.0 °F /  -17.8 °C 1019.9 in /  34533.8 hPa WSW 3.7 mph /  6 km/h 3.7 mph /  6 km/h 57 % 0.0 in /  0 mm
18:35 7.9 °F /  -13.4 °C -0.1 °F /  -17.8 °C 1019.9 in /  34533.8 hPa WSW 1.9 mph /  3.1 km/h   57 % 0.0 in /  0 mm
18:45 7.6 °F /  -13.6 °C -0.4 °F /  -18 °C 1018.8 in /  34496.6 hPa WSW 1.4 mph /  2.3 km/h   57 % 0.0 in /  0 mm
18:50 7.6 °F /  -13.6 °C -0.4 °F /  -18 °C 1018.8 in /  34496.6 hPa SW 3.7 mph /  6 km/h 3.7 mph /  6 km/h 57 % 0.0 in /  0 mm
18:55 7.6 °F /  -13.6 °C -0.4 °F /  -18 °C 1018.8 in /  34496.6 hPa WSW 1.9 mph /  3.1 km/h 1.9 mph /  3.1 km/h 57 % 0.0 in /  0 mm
19:00 7.5 °F /  -13.6 °C -0.2 °F /  -17.9 °C 1019.9 in /  34533.8 hPa SW 1.9 mph /  3.1 km/h 1.9 mph /  3.1 km/h 58 % 0.0 in /  0 mm
19:05 7.5 °F /  -13.6 °C -0.2 °F /  -17.9 °C 1019.9 in /  34533.8 hPa SW 1.9 mph /  3.1 km/h 1.9 mph /  3.1 km/h 58 % 0.0 in /  0 mm
19:10 7.4 °F /  -13.7 °C -0.3 °F /  -17.9 °C 1019.9 in /  34533.8 hPa WSW 3.7 mph /  6 km/h 3.7 mph /  6 km/h 58 % 0.0 in /  0 mm
19:15 7.3 °F /  -13.7 °C -0.4 °F /  -18 °C 1019.9 in /  34533.8 hPa WSW 1.9 mph /  3.1 km/h 1.9 mph /  3.1 km/h 58 % 0.0 in /  0 mm
19:20 7.3 °F /  -13.7 °C -0.4 °F /  -18 °C 1019.9 in /  34533.8 hPa WNW 3.7 mph /  6 km/h 3.7 mph /  6 km/h 58 % 0.0 in /  0 mm
19:25 7.3 °F /  -13.7 °C -0.4 °F /  -18 °C 1019.9 in /  34533.8 hPa West 3.7 mph /  6 km/h 3.7 mph /  6 km/h 58 % 0.0 in /  0 mm
19:30 7.3 °F /  -13.7 °C -0.4 °F /  -18 °C 1019.9 in /  34533.8 hPa WSW 3.7 mph /  6 km/h 3.7 mph /  6 km/h 58 % 0.0 in /  0 mm
19:35 7.4 °F /  -13.7 °C -0.3 °F /  -17.9 °C 1019.9 in /  34533.8 hPa WSW 1.9 mph /  3.1 km/h 1.9 mph /  3.1 km/h 58 % 0.0 in /  0 mm
19:40 7.4 °F /  -13.7 °C -0.3 °F /  -17.9 °C 1019.9 in /  34533.8 hPa Calm     58 % 0.0 in /  0 mm
19:45 7.3 °F /  -13.7 °C -0.4 °F /  -18 °C 1018.8 in /  34496.6 hPa WSW 1.9 mph /  3.1 km/h   58 % 0.0 in /  0 mm
19:50 7.3 °F /  -13.7 °C -0.4 °F /  -18 °C 1018.8 in /  34496.6 hPa WSW 1.9 mph /  3.1 km/h   58 % 0.0 in /  0 mm
22:29 5.9 °F /  -14.5 °C -0.4 °F /  -18 °C 1019.9 in /  34533.8 hPa NNE 1.9 mph /  3.1 km/h   64 % 0.0 in /  0 mm
22:34 5.9 °F /  -14.5 °C -0.4 °F /  -18 °C 1019.9 in /  34533.8 hPa Calm     64 % 0.0 in /  0 mm
22:39 5.9 °F /  -14.5 °C -0.4 °F /  -18 °C 1019.9 in /  34533.8 hPa NE 2.3 mph /  3.7 km/h 2.3 mph /  3.7 km/h 64 % 0.0 in /  0 mm
22:44 5.8 °F /  -14.6 °C -0.5 °F /  -18.1 °C 1019.9 in /  34533.8 hPa NE 2.3 mph /  3.7 km/h 2.3 mph /  3.7 km/h 64 % 0.0 in /  0 mm
22:49 5.7 °F /  -14.6 °C -0.6 °F /  -18.1 °C 1019.9 in /  34533.8 hPa NE 1.9 mph /  3.1 km/h 1.9 mph /  3.1 km/h 64 % 0.0 in /  0 mm
22:54 5.7 °F /  -14.6 °C -0.6 °F /  -18.1 °C 1019.9 in /  34533.8 hPa Calm     64 % 0.0 in /  0 mm
22:59 5.6 °F /  -14.7 °C -0.7 °F /  -18.2 °C 1018.8 in /  34496.6 hPa Calm     64 % 0.0 in /  0 mm
23:04 5.6 °F /  -14.7 °C -0.7 °F /  -18.2 °C 1018.8 in /  34496.6 hPa Calm     64 % 0.0 in /  0 mm
23:09 5.6 °F /  -14.7 °C -0.7 °F /  -18.2 °C 1018.8 in /  34496.6 hPa Calm     64 % 0.0 in /  0 mm
23:14 5.6 °F /  -14.7 °C -0.7 °F /  -18.2 °C 1019.9 in /  34533.8 hPa Calm     64 % 0.0 in /  0 mm
23:19 5.6 °F /  -14.7 °C -0.7 °F /  -18.2 °C 1019.9 in /  34533.8 hPa Calm     64 % 0.0 in /  0 mm
23:24 5.6 °F /  -14.7 °C -0.7 °F /  -18.2 °C 1019.9 in /  34533.8 hPa Calm     64 % 0.0 in /  0 mm
23:29 5.5 °F /  -14.7 °C -0.8 °F /  -18.2 °C 1018.8 in /  34496.6 hPa ENE 3.7 mph /  6 km/h 3.7 mph /  6 km/h 64 % 0.0 in /  0 mm
23:34 5.5 °F /  -14.7 °C -0.8 °F /  -18.2 °C 1018.8 in /  34496.6 hPa Calm     64 % 0.0 in /  0 mm
23:39 5.4 °F /  -14.8 °C -0.9 °F /  -18.3 °C 1018.8 in /  34496.6 hPa Calm     64 % 0.0 in /  0 mm
23:44 5.4 °F /  -14.8 °C -0.9 °F /  -18.3 °C 1018.8 in /  34496.6 hPa WSW 1.9 mph /  3.1 km/h   64 % 0.0 in /  0 mm
23:49 5.3 °F /  -14.8 °C -0.9 °F /  -18.3 °C 1018.8 in /  34496.6 hPa WSW 2.3 mph /  3.7 km/h 2.3 mph /  3.7 km/h 64 % 0.0 in /  0 mm
23:54 5.3 °F /  -14.8 °C -0.9 °F /  -18.3 °C 1018.8 in /  34496.6 hPa WSW 3.7 mph /  6 km/h 3.7 mph /  6 km/h 64 % 0.0 in /  0 mm
23:59 5.3 °F /  -14.8 °C -0.9 °F /  -18.3 °C 1018.8 in /  34496.6 hPa SW 1.9 mph /  3.1 km/h   64 % 0.0 in /  0 mm
Meteo Sesrovires
Elogis d' Weather Underground - 1.5 mb

Guio original per  Jim McMurry - jmcmurry@mwt.net Adaptat per a la plantilla per  Wim van der Kuil - Leuven-Template.eu

Trobareu la nostra informacio del temps tambe a:

Weather Underground

AWEKAS